createdAt,value
2023-04-11T00:00:18.784Z,11.36
2023-04-11T00:02:46.740Z,11.24
2023-04-11T00:05:13.217Z,11.23
2023-04-11T00:07:39.547Z,11.20
2023-04-11T00:10:07.281Z,11.16
2023-04-11T00:12:33.637Z,11.07
2023-04-11T00:15:00.146Z,11.04
2023-04-11T00:17:31.247Z,11.05
2023-04-11T00:20:01.622Z,10.96
2023-04-11T00:22:28.048Z,10.93
2023-04-11T00:24:54.734Z,10.90
2023-04-11T00:27:22.058Z,10.80
2023-04-11T00:29:48.490Z,10.57
2023-04-11T00:32:14.835Z,10.43
2023-04-11T00:34:42.230Z,10.30
2023-04-11T00:37:08.554Z,10.24
2023-04-11T00:39:35.244Z,10.23
2023-04-11T00:42:06.590Z,10.22
2023-04-11T00:44:33.680Z,10.13
2023-04-11T00:47:02.967Z,10.09
2023-04-11T00:49:30.326Z,10.07
2023-04-11T00:51:56.734Z,10.00
2023-04-11T00:54:29.865Z,10.03
2023-04-11T00:57:01.711Z,10.18
2023-04-11T00:59:29.364Z,10.11
2023-04-11T01:01:56.329Z,9.99
2023-04-11T01:04:22.839Z,10.01
2023-04-11T01:06:54.279Z,9.95
2023-04-11T01:09:23.048Z,9.91
2023-04-11T01:11:50.395Z,9.93
2023-04-11T01:14:18.747Z,9.86
2023-04-11T01:16:50.620Z,9.82
2023-04-11T01:19:22.246Z,9.74
2023-04-11T01:21:52.424Z,9.63
2023-04-11T01:24:18.961Z,9.68
2023-04-11T01:26:45.737Z,9.61
2023-04-11T01:29:12.154Z,9.57
2023-04-11T01:31:38.637Z,9.57
2023-04-11T01:34:05.535Z,9.50
2023-04-11T01:36:32.221Z,9.41
2023-04-11T01:38:59.046Z,9.33
2023-04-11T01:41:26.697Z,9.34
2023-04-11T01:43:53.255Z,9.16
2023-04-11T01:46:19.926Z,9.37
2023-04-11T01:48:46.420Z,9.26
2023-04-11T01:51:12.913Z,9.22
2023-04-11T01:53:39.235Z,9.24
2023-04-11T01:56:06.245Z,9.29
2023-04-11T01:58:32.718Z,9.29
2023-04-11T02:00:59.128Z,9.28
2023-04-11T02:03:25.860Z,9.35
2023-04-11T02:05:52.330Z,9.30
2023-04-11T02:08:18.681Z,9.29
2023-04-11T02:10:45.126Z,9.30
2023-04-11T02:13:11.701Z,9.29
2023-04-11T02:15:38.176Z,9.27
2023-04-11T02:18:04.762Z,9.30
2023-04-11T02:20:31.182Z,9.28
2023-04-11T02:22:58.861Z,9.19
2023-04-11T02:25:25.424Z,9.16
2023-04-11T02:27:51.735Z,9.10
2023-04-11T02:30:18.126Z,9.08
2023-04-11T02:32:46.416Z,9.07
2023-04-11T02:35:12.865Z,9.05
2023-04-11T02:37:39.223Z,8.99
2023-04-11T02:40:06.271Z,8.91
2023-04-11T02:42:32.573Z,8.82
2023-04-11T02:44:58.976Z,8.87
2023-04-11T02:47:25.387Z,8.86
2023-04-11T02:49:51.857Z,8.88
2023-04-11T02:52:18.982Z,8.83
2023-04-11T02:54:46.119Z,8.83
2023-04-11T02:57:12.588Z,8.82
2023-04-11T02:59:39.041Z,8.84
2023-04-11T03:02:05.449Z,8.82
2023-04-11T03:04:32.008Z,8.78
2023-04-11T03:06:58.496Z,8.71
2023-04-11T03:09:25.237Z,8.70
2023-04-11T03:11:51.740Z,8.65
2023-04-11T03:14:18.155Z,8.56
2023-04-11T03:16:44.495Z,8.53
2023-04-11T03:19:10.856Z,8.51
2023-04-11T03:21:37.158Z,8.53
2023-04-11T03:24:03.770Z,8.48
2023-04-11T03:26:30.202Z,8.35
2023-04-11T03:28:56.883Z,8.32
2023-04-11T03:31:23.537Z,8.31
2023-04-11T03:33:50.044Z,8.31
2023-04-11T03:36:16.714Z,8.23
2023-04-11T03:38:43.130Z,8.27
2023-04-11T03:41:09.487Z,8.14
2023-04-11T03:43:35.847Z,8.20
2023-04-11T03:46:02.245Z,8.23
2023-04-11T03:48:30.536Z,8.20
2023-04-11T03:50:56.960Z,8.28
2023-04-11T03:53:23.348Z,8.22
2023-04-11T03:55:49.845Z,8.18
2023-04-11T03:58:16.296Z,8.13
2023-04-11T04:00:42.621Z,8.11
2023-04-11T04:03:09.302Z,8.11
2023-04-11T04:05:35.868Z,8.12
2023-04-11T04:08:02.298Z,8.09
2023-04-11T04:10:31.133Z,8.06
2023-04-11T04:12:57.475Z,8.03
2023-04-11T04:15:24.317Z,8.05
2023-04-11T04:17:51.539Z,7.98
2023-04-11T04:20:17.951Z,7.95
2023-04-11T04:22:47.182Z,7.88
2023-04-11T04:25:19.901Z,7.89
2023-04-11T04:27:46.689Z,7.79
2023-04-11T04:30:16.018Z,7.86
2023-04-11T04:32:46.435Z,7.81
2023-04-11T04:35:14.103Z,7.66
2023-04-11T04:37:45.254Z,7.71
2023-04-11T04:40:20.445Z,7.55
2023-04-11T04:42:49.918Z,7.43
2023-04-11T04:45:16.370Z,7.36
2023-04-11T04:47:42.761Z,7.27
2023-04-11T04:50:09.581Z,7.21
2023-04-11T04:52:36.284Z,7.13
2023-04-11T04:55:03.869Z,7.05
2023-04-11T04:57:33.629Z,6.95
2023-04-11T05:00:00.040Z,6.89
2023-04-11T05:02:26.898Z,7.00
2023-04-11T05:04:54.356Z,6.94
2023-04-11T05:07:21.034Z,6.99
2023-04-11T05:09:47.779Z,7.04
2023-04-11T05:12:16.060Z,7.08
2023-04-11T05:14:42.730Z,7.11
2023-04-11T05:17:09.096Z,7.09
2023-04-11T05:19:35.561Z,7.21
2023-04-11T05:22:01.975Z,7.38
2023-04-11T05:24:28.309Z,7.55
2023-04-11T05:26:54.672Z,7.82
2023-04-11T05:29:21.302Z,7.94
2023-04-11T05:31:47.730Z,7.99
2023-04-11T05:34:14.090Z,8.08
2023-04-11T05:36:42.017Z,8.14
2023-04-11T05:39:08.361Z,8.20
2023-04-11T05:41:34.749Z,8.24
2023-04-11T05:44:01.766Z,8.35
2023-04-11T05:46:29.391Z,8.36
2023-04-11T05:48:58.018Z,8.41
2023-04-11T05:51:24.796Z,8.50
2023-04-11T05:53:51.151Z,8.51
2023-04-11T05:56:17.584Z,8.51
2023-04-11T05:58:44.322Z,8.57
2023-04-11T06:01:18.147Z,8.62
2023-04-11T06:03:48.609Z,8.60
2023-04-11T06:06:15.772Z,8.63
2023-04-11T06:08:42.718Z,8.66
2023-04-11T06:11:09.150Z,8.75
2023-04-11T06:13:35.644Z,8.79
2023-04-11T06:16:02.162Z,8.79
2023-04-11T06:18:28.478Z,8.81
2023-04-11T06:20:54.918Z,8.94
2023-04-11T06:23:21.286Z,8.96
2023-04-11T06:25:47.716Z,8.98
2023-04-11T06:28:14.278Z,9.37
2023-04-11T06:30:41.367Z,9.76
2023-04-11T06:33:07.800Z,9.76
2023-04-11T06:35:34.171Z,9.72
2023-04-11T06:38:00.666Z,9.86
2023-04-11T06:40:27.078Z,9.83
2023-04-11T06:42:53.492Z,9.82
2023-04-11T06:45:20.090Z,10.34
2023-04-11T06:47:46.534Z,10.49
2023-04-11T06:50:13.141Z,10.40
2023-04-11T06:52:39.592Z,10.32
2023-04-11T06:55:10.083Z,10.65
2023-04-11T06:57:36.440Z,11.07
2023-04-11T07:00:06.743Z,11.18
2023-04-11T07:02:35.664Z,11.69
2023-04-11T07:05:02.396Z,11.88
2023-04-11T07:07:28.823Z,12.79
2023-04-11T07:09:55.218Z,12.63
2023-04-11T07:12:21.569Z,11.83
2023-04-11T07:14:48.004Z,12.21
2023-04-11T07:17:14.513Z,11.96
2023-04-11T07:19:40.858Z,12.62
2023-04-11T07:22:07.659Z,12.82
2023-04-11T07:24:34.110Z,13.42
2023-04-11T07:27:01.842Z,12.74
2023-04-11T07:29:30.890Z,13.01
2023-04-11T07:32:00.527Z,13.85
2023-04-11T07:34:27.100Z,12.33
2023-04-11T07:36:53.419Z,12.69
2023-04-11T07:39:19.759Z,12.66
2023-04-11T07:41:46.273Z,12.79
2023-04-11T07:44:12.718Z,13.16
2023-04-11T07:46:39.053Z,13.06
2023-04-11T07:49:05.507Z,13.34
2023-04-11T07:51:32.310Z,12.96
2023-04-11T07:54:01.129Z,12.67
2023-04-11T07:56:27.485Z,12.47
2023-04-11T07:58:54.511Z,12.10
2023-04-11T08:01:24.926Z,12.20
2023-04-11T08:03:53.703Z,12.19
2023-04-11T08:06:20.751Z,11.92
2023-04-11T08:08:48.529Z,11.84
2023-04-11T08:11:15.905Z,11.65
2023-04-11T08:13:43.009Z,11.58
2023-04-11T08:16:14.915Z,11.69
2023-04-11T08:18:42.528Z,11.82
2023-04-11T08:21:10.818Z,12.08
2023-04-11T08:23:37.563Z,11.86
2023-04-11T08:26:04.058Z,11.30
2023-04-11T08:28:30.777Z,11.24
2023-04-11T08:30:58.493Z,11.37
2023-04-11T08:33:26.006Z,11.43
2023-04-11T08:35:52.611Z,11.90
2023-04-11T08:38:19.861Z,12.27
2023-04-11T08:40:46.350Z,12.34
2023-04-11T08:43:12.831Z,12.82
2023-04-11T08:45:40.665Z,13.33
2023-04-11T08:48:08.311Z,14.05
2023-04-11T08:50:35.476Z,13.82
2023-04-11T08:53:03.042Z,13.70
2023-04-11T08:55:32.524Z,13.26
2023-04-11T08:58:02.892Z,13.06
2023-04-11T09:00:32.165Z,12.77
2023-04-11T09:03:07.224Z,12.96
2023-04-11T09:05:38.920Z,13.16
2023-04-11T09:08:10.498Z,12.76
2023-04-11T09:10:39.351Z,13.11
2023-04-11T09:13:22.708Z,13.25
2023-04-11T09:16:05.525Z,12.98
2023-04-11T09:18:37.180Z,13.33
2023-04-11T09:21:10.828Z,13.62
2023-04-11T09:23:38.142Z,13.80
2023-04-11T09:26:12.724Z,13.98
2023-04-11T09:28:53.407Z,13.98
2023-04-11T09:31:21.720Z,14.22
2023-04-11T09:33:59.259Z,14.34
2023-04-11T09:36:29.318Z,14.51
2023-04-11T09:38:57.424Z,14.87
2023-04-11T09:41:33.894Z,15.06
2023-04-11T09:44:01.140Z,15.52
2023-04-11T09:46:27.628Z,15.24
2023-04-11T09:48:55.219Z,13.91
2023-04-11T09:51:34.387Z,12.50
2023-04-11T09:54:03.278Z,11.78
2023-04-11T09:56:31.010Z,11.47
2023-04-11T09:59:00.766Z,11.27
2023-04-11T10:01:27.546Z,11.14
2023-04-11T10:03:56.135Z,10.98
2023-04-11T10:06:33.859Z,11.14
2023-04-11T10:09:07.975Z,11.32
2023-04-11T10:11:34.414Z,11.68
2023-04-11T10:14:00.737Z,12.05
2023-04-11T10:16:28.754Z,12.23
2023-04-11T10:18:55.208Z,12.60
2023-04-11T10:21:38.176Z,12.71
2023-04-11T10:24:17.392Z,13.14
2023-04-11T10:26:54.868Z,13.52
2023-04-11T10:29:50.728Z,13.59
2023-04-11T10:32:22.539Z,13.56
2023-04-11T10:34:51.925Z,13.65
2023-04-11T10:37:19.143Z,13.49
2023-04-11T10:39:51.601Z,13.63
2023-04-11T10:42:36.147Z,14.19
2023-04-11T10:45:24.251Z,14.70
2023-04-11T10:47:59.348Z,15.00
2023-04-11T10:50:28.743Z,15.34
2023-04-11T10:52:57.040Z,15.41
2023-04-11T10:55:24.771Z,15.69
2023-04-11T10:58:13.968Z,15.57
2023-04-11T11:00:46.383Z,16.28
2023-04-11T11:03:16.943Z,16.11
2023-04-11T11:05:43.792Z,16.16
2023-04-11T11:08:10.390Z,16.36
2023-04-11T11:10:49.564Z,16.71
2023-04-11T11:13:16.715Z,16.93
2023-04-11T11:15:48.528Z,16.85
2023-04-11T11:18:16.185Z,16.87
2023-04-11T11:20:42.614Z,16.42
2023-04-11T11:23:10.653Z,16.24
2023-04-11T11:25:37.262Z,16.44
2023-04-11T11:28:09.290Z,16.90
2023-04-11T11:30:36.914Z,16.36
2023-04-11T11:33:18.114Z,15.95
2023-04-11T11:35:58.259Z,15.90
2023-04-11T11:38:30.159Z,15.92
2023-04-11T11:40:57.907Z,15.71
2023-04-11T11:43:27.890Z,16.18
2023-04-11T11:46:08.754Z,15.58
2023-04-11T11:48:35.581Z,15.80
2023-04-11T11:51:02.058Z,16.19
2023-04-11T11:53:28.351Z,16.37
2023-04-11T11:55:54.818Z,16.45
2023-04-11T11:58:21.373Z,16.38
2023-04-11T12:00:50.103Z,16.46
2023-04-11T12:03:18.544Z,16.56
2023-04-11T12:05:45.188Z,16.20
2023-04-11T12:08:11.904Z,15.87
2023-04-11T12:10:38.168Z,15.25
2023-04-11T12:13:22.540Z,15.04
2023-04-11T12:15:53.114Z,15.06
2023-04-11T12:18:24.332Z,15.11
2023-04-11T12:20:51.381Z,14.79
2023-04-11T12:23:18.337Z,15.02
2023-04-11T12:25:46.246Z,15.07
2023-04-11T12:28:13.731Z,15.12
2023-04-11T12:30:40.138Z,14.72
2023-04-11T12:33:06.605Z,14.68
2023-04-11T12:35:33.507Z,15.20
2023-04-11T12:37:59.846Z,15.16
2023-04-11T12:40:26.779Z,15.58
2023-04-11T12:42:57.157Z,15.77
2023-04-11T12:45:24.437Z,16.03
2023-04-11T12:47:51.088Z,15.74
2023-04-11T12:50:18.059Z,15.53
2023-04-11T12:52:44.445Z,15.75
2023-04-11T12:55:13.252Z,15.50
2023-04-11T12:57:39.919Z,15.41
2023-04-11T13:00:08.846Z,15.18
2023-04-11T13:02:42.244Z,15.20
2023-04-11T13:05:11.860Z,15.28
2023-04-11T13:07:39.013Z,15.23
2023-04-11T13:10:07.818Z,15.29
2023-04-11T13:12:39.534Z,15.18
2023-04-11T13:15:12.118Z,15.48
2023-04-11T13:17:38.925Z,15.32
2023-04-11T13:20:09.900Z,15.06
2023-04-11T13:22:37.755Z,14.79
2023-04-11T13:25:04.554Z,14.69
2023-04-11T13:27:30.918Z,14.57
2023-04-11T13:29:57.290Z,14.56
2023-04-11T13:32:23.684Z,14.79
2023-04-11T13:34:50.176Z,14.90
2023-04-11T13:37:16.536Z,14.92
2023-04-11T13:39:42.978Z,15.08
2023-04-11T13:42:10.092Z,15.33
2023-04-11T13:44:36.392Z,15.38
2023-04-11T13:47:03.547Z,15.22
2023-04-11T13:49:30.202Z,15.42
2023-04-11T13:51:56.644Z,15.34
2023-04-11T13:54:23.060Z,15.24
2023-04-11T13:56:49.370Z,15.28
2023-04-11T13:59:15.884Z,15.21
2023-04-11T14:01:42.390Z,15.31
2023-04-11T14:04:08.989Z,15.16
2023-04-11T14:06:36.678Z,15.27
2023-04-11T14:09:05.107Z,15.46
2023-04-11T14:11:31.816Z,15.54
2023-04-11T14:13:58.381Z,15.51
2023-04-11T14:16:25.037Z,15.07
2023-04-11T14:18:51.364Z,15.02
2023-04-11T14:21:17.866Z,15.09
2023-04-11T14:23:44.262Z,14.94
2023-04-11T14:26:10.942Z,14.31
2023-04-11T14:28:37.332Z,14.02
2023-04-11T14:31:03.797Z,14.15
2023-04-11T14:33:30.274Z,14.18
2023-04-11T14:35:56.699Z,14.23
2023-04-11T14:38:23.290Z,14.11
2023-04-11T14:40:49.655Z,14.06
2023-04-11T14:43:16.814Z,13.91
2023-04-11T14:45:43.250Z,13.80
2023-04-11T14:48:09.852Z,13.54
2023-04-11T14:50:36.342Z,13.24
2023-04-11T14:53:02.942Z,13.23
2023-04-11T14:55:29.330Z,13.65
2023-04-11T14:57:55.896Z,13.96
2023-04-11T15:00:25.207Z,13.99
2023-04-11T15:02:53.622Z,14.00
2023-04-11T15:05:21.430Z,14.18
2023-04-11T15:07:49.274Z,14.13
2023-04-11T15:10:18.153Z,14.14
2023-04-11T15:12:44.781Z,14.07
2023-04-11T15:15:12.243Z,14.03
2023-04-11T15:17:43.654Z,13.95
2023-04-11T15:20:11.757Z,14.25
2023-04-11T15:22:42.913Z,14.53
2023-04-11T15:25:13.044Z,14.61
2023-04-11T15:27:41.930Z,14.59
2023-04-11T15:30:10.006Z,14.68
2023-04-11T15:32:41.647Z,14.71
2023-04-11T15:35:08.977Z,14.56
2023-04-11T15:37:35.270Z,14.19
2023-04-11T15:40:05.819Z,14.02
2023-04-11T15:42:35.020Z,14.01
2023-04-11T15:45:01.357Z,14.32
2023-04-11T15:47:27.738Z,14.62
2023-04-11T15:49:54.212Z,15.00
2023-04-11T15:52:21.257Z,15.26
2023-04-11T15:54:47.608Z,15.29
2023-04-11T15:57:13.918Z,14.85
2023-04-11T15:59:41.652Z,14.51
2023-04-11T16:02:08.326Z,14.19
2023-04-11T16:04:38.317Z,14.01
2023-04-11T16:07:06.636Z,13.88
2023-04-11T16:09:33.918Z,13.75
2023-04-11T16:12:01.210Z,13.69
2023-04-11T16:14:29.137Z,13.72
2023-04-11T16:16:56.212Z,13.72
2023-04-11T16:19:22.586Z,13.91
2023-04-11T16:21:48.949Z,14.07
2023-04-11T16:24:15.277Z,14.10
2023-04-11T16:26:41.552Z,13.95
2023-04-11T16:29:07.844Z,13.84
2023-04-11T16:31:34.189Z,13.78
2023-04-11T16:34:00.537Z,13.75
2023-04-11T16:36:26.934Z,13.71
2023-04-11T16:38:53.323Z,13.72
2023-04-11T16:41:19.691Z,13.70
2023-04-11T16:43:46.146Z,13.65
2023-04-11T16:46:16.180Z,13.60
2023-04-11T16:48:43.063Z,13.56
2023-04-11T16:51:13.326Z,13.59
2023-04-11T16:53:40.489Z,13.53
2023-04-11T16:56:07.124Z,13.42
2023-04-11T16:58:33.739Z,13.40
2023-04-11T17:01:01.196Z,13.27
2023-04-11T17:03:27.776Z,13.27
2023-04-11T17:05:54.465Z,13.18
2023-04-11T17:08:21.042Z,13.10
2023-04-11T17:10:47.369Z,13.10
2023-04-11T17:13:14.577Z,13.02
2023-04-11T17:15:40.933Z,12.91
2023-04-11T17:18:07.685Z,12.87
2023-04-11T17:20:34.038Z,12.78
2023-04-11T17:23:00.788Z,12.63
2023-04-11T17:25:29.420Z,12.53
2023-04-11T17:27:56.820Z,12.47
2023-04-11T17:30:23.208Z,12.42
2023-04-11T17:32:49.631Z,12.44
2023-04-11T17:35:16.181Z,12.40
2023-04-11T17:37:42.506Z,12.34
2023-04-11T17:40:15.491Z,12.22
2023-04-11T17:42:41.837Z,12.25
2023-04-11T17:45:17.205Z,12.18
2023-04-11T17:47:44.900Z,12.20
2023-04-11T17:50:12.893Z,12.09
2023-04-11T17:52:41.612Z,12.01
2023-04-11T17:55:10.322Z,11.92
2023-04-11T17:57:36.948Z,11.77
2023-04-11T18:00:07.060Z,11.71
2023-04-11T18:02:35.159Z,11.51
2023-04-11T18:05:10.322Z,11.36
2023-04-11T18:07:44.836Z,11.15
2023-04-11T18:10:11.626Z,10.99
2023-04-11T18:12:38.993Z,10.76
2023-04-11T18:15:06.106Z,10.65
2023-04-11T18:17:34.038Z,10.46
2023-04-11T18:20:01.741Z,10.34
2023-04-11T18:22:29.554Z,10.23
2023-04-11T18:24:56.037Z,10.13
2023-04-11T18:27:22.528Z,10.02
2023-04-11T18:29:51.916Z,9.93
2023-04-11T18:32:19.824Z,9.86
2023-04-11T18:34:48.750Z,9.81
2023-04-11T18:37:15.135Z,9.73
2023-04-11T18:39:41.473Z,9.70
2023-04-11T18:42:07.804Z,9.67
2023-04-11T18:44:34.529Z,9.63
2023-04-11T18:47:03.743Z,9.57
2023-04-11T18:49:32.103Z,9.52
2023-04-11T18:51:58.493Z,9.45
2023-04-11T18:54:24.948Z,9.40
2023-04-11T18:56:53.705Z,9.35
2023-04-11T18:59:24.883Z,9.31
2023-04-11T19:01:52.357Z,9.27
2023-04-11T19:04:19.437Z,9.30
2023-04-11T19:06:46.172Z,9.36
2023-04-11T19:09:13.944Z,9.38
2023-04-11T19:11:41.319Z,9.36
2023-04-11T19:14:09.333Z,9.33
2023-04-11T19:16:36.136Z,9.30
2023-04-11T19:19:02.612Z,9.32
2023-04-11T19:21:28.900Z,9.29
2023-04-11T19:23:57.594Z,9.24
2023-04-11T19:26:26.572Z,9.22
2023-04-11T19:28:56.727Z,9.19
2023-04-11T19:31:23.642Z,9.17
2023-04-11T19:33:50.451Z,9.13
2023-04-11T19:36:17.111Z,9.10
2023-04-11T19:38:43.467Z,9.09
2023-04-11T19:41:14.858Z,9.07
2023-04-11T19:43:42.630Z,9.07
2023-04-11T19:46:12.004Z,9.16
2023-04-11T19:48:42.948Z,9.19
2023-04-11T19:51:10.754Z,9.20
2023-04-11T19:53:40.512Z,9.20
2023-04-11T19:56:09.794Z,9.19
2023-04-11T19:58:36.149Z,9.20
2023-04-11T20:01:03.821Z,9.22
2023-04-11T20:03:30.760Z,9.28
2023-04-11T20:05:58.088Z,9.32
2023-04-11T20:08:26.560Z,9.36
2023-04-11T20:10:54.533Z,9.42
2023-04-11T20:13:20.890Z,9.46
2023-04-11T20:15:47.261Z,9.52
2023-04-11T20:18:13.688Z,9.55
2023-04-11T20:20:40.104Z,9.59
2023-04-11T20:23:06.959Z,9.64
2023-04-11T20:25:34.346Z,9.62
2023-04-11T20:28:01.375Z,9.63
2023-04-11T20:30:29.253Z,9.65
2023-04-11T20:32:56.501Z,9.62
2023-04-11T20:35:22.953Z,9.62
2023-04-11T20:37:50.011Z,9.59
2023-04-11T20:40:17.126Z,9.55
2023-04-11T20:42:47.636Z,9.49
2023-04-11T20:45:20.449Z,9.44
2023-04-11T20:47:47.553Z,9.41
2023-04-11T20:50:16.546Z,9.46
2023-04-11T20:52:47.949Z,9.41
2023-04-11T20:55:14.381Z,9.43
2023-04-11T20:57:40.938Z,9.56
2023-04-11T21:00:13.803Z,9.55
2023-04-11T21:02:43.870Z,9.48
2023-04-11T21:05:14.946Z,9.46
2023-04-11T21:07:41.896Z,9.31
2023-04-11T21:10:08.909Z,9.26
2023-04-11T21:12:35.685Z,9.22
2023-04-11T21:15:03.473Z,9.22
2023-04-11T21:17:34.288Z,9.20
2023-04-11T21:20:01.581Z,9.15
2023-04-11T21:22:27.964Z,9.10
2023-04-11T21:24:54.346Z,9.09
2023-04-11T21:27:20.685Z,9.01
2023-04-11T21:29:46.981Z,8.98
2023-04-11T21:32:13.369Z,8.96
2023-04-11T21:34:39.695Z,9.06
2023-04-11T21:37:06.216Z,8.98
2023-04-11T21:39:32.564Z,8.99
2023-04-11T21:42:00.065Z,8.97
2023-04-11T21:44:26.489Z,8.92
2023-04-11T21:46:52.848Z,8.95
2023-04-11T21:49:19.265Z,8.91
2023-04-11T21:51:45.643Z,8.85
2023-04-11T21:54:11.930Z,8.79
2023-04-11T21:56:38.306Z,8.75
2023-04-11T21:59:04.616Z,8.73
2023-04-11T22:01:31.185Z,8.78
2023-04-11T22:03:59.023Z,8.75
2023-04-11T22:06:26.494Z,8.69
2023-04-11T22:08:52.869Z,8.62
2023-04-11T22:11:20.176Z,8.56
2023-04-11T22:13:46.561Z,8.52
2023-04-11T22:16:13.989Z,8.50
2023-04-11T22:18:46.846Z,8.48
2023-04-11T22:21:22.284Z,8.52
2023-04-11T22:23:54.198Z,8.48
2023-04-11T22:26:26.649Z,8.69
2023-04-11T22:28:54.331Z,8.64
2023-04-11T22:31:20.996Z,8.60
2023-04-11T22:33:48.620Z,8.58
2023-04-11T22:36:14.982Z,8.71
2023-04-11T22:38:41.303Z,8.72
2023-04-11T22:41:14.529Z,8.69
2023-04-11T22:43:41.029Z,8.70
2023-04-11T22:46:08.936Z,8.65
2023-04-11T22:48:36.230Z,8.60
2023-04-11T22:51:05.781Z,8.63
2023-04-11T22:53:34.278Z,8.81
2023-04-11T22:56:01.957Z,8.90
2023-04-11T22:58:28.283Z,8.93
2023-04-11T23:00:55.521Z,8.90
2023-04-11T23:03:22.015Z,8.81
2023-04-11T23:05:48.625Z,8.79
2023-04-11T23:08:14.948Z,8.84
2023-04-11T23:10:42.310Z,8.83
2023-04-11T23:13:09.134Z,8.87
2023-04-11T23:15:35.553Z,8.87
2023-04-11T23:18:02.027Z,8.81
2023-04-11T23:20:28.468Z,8.79
2023-04-11T23:22:55.354Z,8.96
2023-04-11T23:25:22.062Z,8.99
2023-04-11T23:27:48.425Z,9.01
2023-04-11T23:30:17.682Z,8.95
2023-04-11T23:32:44.275Z,8.94
2023-04-11T23:35:10.697Z,8.88
2023-04-11T23:37:37.026Z,8.92
2023-04-11T23:40:10.322Z,8.92
2023-04-11T23:42:38.256Z,8.94
2023-04-11T23:45:08.933Z,9.01
2023-04-11T23:47:35.536Z,9.06
2023-04-11T23:50:02.700Z,9.07
2023-04-11T23:52:30.333Z,9.15
2023-04-11T23:54:57.071Z,9.10
2023-04-11T23:57:23.930Z,9.03
2023-04-11T23:59:50.335Z,8.99
